createdAt,value
2019-01-08T00:01:53.507Z,8.56
2019-01-08T00:04:23.649Z,8.51
2019-01-08T00:06:53.850Z,8.55
2019-01-08T00:09:23.987Z,8.56
2019-01-08T00:11:54.081Z,8.51
2019-01-08T00:14:24.208Z,8.54
2019-01-08T00:16:54.352Z,8.48
2019-01-08T00:19:24.476Z,8.52
2019-01-08T00:21:54.552Z,8.54
2019-01-08T00:24:24.637Z,8.61
2019-01-08T00:30:54.591Z,8.52
2019-01-08T00:33:24.621Z,8.37
2019-01-08T00:35:54.715Z,8.49
2019-01-08T00:38:24.768Z,8.44
2019-01-08T00:40:54.870Z,8.55
2019-01-08T00:43:24.915Z,8.49
2019-01-08T00:45:55.510Z,8.49
2019-01-08T00:48:25.570Z,8.47
2019-01-08T00:50:55.612Z,8.41
2019-01-08T00:53:25.683Z,8.36
2019-01-08T00:55:55.735Z,8.35
2019-01-08T00:58:25.877Z,8.40
2019-01-08T01:00:56.228Z,8.41
2019-01-08T01:03:26.294Z,8.29
2019-01-08T01:05:56.398Z,8.36
2019-01-08T01:08:26.531Z,8.38
2019-01-08T01:10:56.625Z,8.32
2019-01-08T01:13:27.984Z,8.48
2019-01-08T01:15:58.131Z,8.41
2019-01-08T01:18:28.961Z,8.31
2019-01-08T01:20:59.083Z,8.31
2019-01-08T01:23:29.292Z,8.36
2019-01-08T01:25:59.439Z,8.36
2019-01-08T01:28:29.569Z,8.32
2019-01-08T01:30:59.666Z,8.24
2019-01-08T01:33:29.814Z,8.30
2019-01-08T01:35:59.948Z,8.29
2019-01-08T01:38:30.054Z,8.27
2019-01-08T01:41:00.166Z,8.22
2019-01-08T01:43:30.267Z,8.22
2019-01-08T01:46:00.396Z,8.30
2019-01-08T01:48:30.564Z,8.32
2019-01-08T01:51:01.013Z,8.29
2019-01-08T01:53:31.116Z,8.25
2019-01-08T01:56:01.368Z,8.20
2019-01-08T01:58:31.559Z,8.21
2019-01-08T02:01:01.694Z,8.20
2019-01-08T02:03:31.860Z,8.20
2019-01-08T02:06:01.945Z,8.21
2019-01-08T02:08:32.052Z,8.18
2019-01-08T02:11:02.184Z,8.13
2019-01-08T02:13:32.322Z,8.16
2019-01-08T02:22:37.678Z,8.15
2019-01-08T02:25:26.281Z,8.03
2019-01-08T02:27:56.373Z,8.11
2019-01-08T02:30:26.531Z,8.03
2019-01-08T02:32:56.753Z,8.06
2019-01-08T02:35:26.889Z,8.15
2019-01-08T02:45:22.104Z,7.97
2019-01-08T02:47:51.946Z,7.79
2019-01-08T02:50:21.711Z,7.67
2019-01-08T02:52:51.457Z,7.76
2019-01-08T02:55:21.915Z,7.87
2019-01-08T02:57:51.585Z,7.82
2019-01-08T03:00:21.423Z,7.83
2019-01-08T03:02:51.314Z,7.86
2019-01-08T03:05:21.049Z,7.76
2019-01-08T03:07:50.728Z,7.78
2019-01-08T03:10:20.508Z,7.80
2019-01-08T03:12:50.280Z,7.73
2019-01-08T03:15:19.989Z,7.78
2019-01-08T03:17:49.696Z,7.80
2019-01-08T03:20:19.559Z,7.78
2019-01-08T03:22:49.338Z,7.79
2019-01-08T03:25:19.126Z,7.69
2019-01-08T03:27:48.796Z,7.75
2019-01-08T03:30:18.585Z,7.73
2019-01-08T03:32:48.321Z,7.57
2019-01-08T03:35:18.167Z,7.59
2019-01-08T03:37:47.830Z,7.61
2019-01-08T03:40:17.511Z,7.62
2019-01-08T03:42:47.275Z,7.57
2019-01-08T03:45:17.040Z,7.66
2019-01-08T03:47:46.872Z,7.67
2019-01-08T03:50:16.728Z,7.58
2019-01-08T03:52:46.489Z,7.57
2019-01-08T03:55:16.227Z,7.63
2019-01-08T03:57:46.019Z,7.45
2019-01-08T04:00:15.828Z,7.50
2019-01-08T04:02:45.503Z,7.51
2019-01-08T04:05:15.651Z,7.51
2019-01-08T04:07:45.378Z,7.48
2019-01-08T04:10:15.134Z,7.45
2019-01-08T04:12:44.804Z,7.38
2019-01-08T04:15:14.558Z,7.42
2019-01-08T04:17:44.403Z,7.43
2019-01-08T04:20:14.169Z,7.39
2019-01-08T04:22:43.834Z,7.37
2019-01-08T04:25:13.620Z,7.48
2019-01-08T04:27:43.296Z,7.40
2019-01-08T04:30:13.036Z,7.35
2019-01-08T04:32:42.807Z,7.47
2019-01-08T04:35:12.548Z,7.41
2019-01-08T04:37:42.238Z,7.41
2019-01-08T04:40:12.052Z,7.35
2019-01-08T04:42:41.763Z,7.35
2019-01-08T04:45:11.575Z,7.45
2019-01-08T04:47:41.351Z,7.42
2019-01-08T04:50:11.093Z,7.36
2019-01-08T04:52:40.807Z,7.46
2019-01-08T04:55:10.565Z,7.42
2019-01-08T04:57:40.316Z,7.37
2019-01-08T05:00:10.474Z,7.31
2019-01-08T05:02:40.247Z,7.42
2019-01-08T05:05:10.115Z,7.35
2019-01-08T05:07:39.804Z,7.41
2019-01-08T05:10:09.569Z,7.34
2019-01-08T05:12:39.273Z,7.42
2019-01-08T05:15:09.110Z,7.38
2019-01-08T05:17:38.874Z,7.47
2019-01-08T05:20:08.810Z,7.38
2019-01-08T05:22:38.504Z,7.38
2019-01-08T05:25:08.270Z,7.49
2019-01-08T05:27:38.163Z,7.33
2019-01-08T05:30:09.155Z,7.36
2019-01-08T05:32:38.798Z,7.41
2019-01-08T05:35:08.546Z,7.47
2019-01-08T05:37:38.241Z,7.40
2019-01-08T05:40:08.014Z,7.29
2019-01-08T05:42:37.719Z,7.29
2019-01-08T05:45:10.233Z,7.31
2019-01-08T05:47:40.035Z,7.20
2019-01-08T05:50:10.458Z,7.22
2019-01-08T05:52:40.197Z,7.23
2019-01-08T05:55:09.946Z,7.17
2019-01-08T05:57:39.663Z,7.19
2019-01-08T06:00:16.284Z,7.12
2019-01-08T06:02:40.943Z,7.15
2019-01-08T06:05:10.794Z,7.15
2019-01-08T06:07:40.551Z,7.15
2019-01-08T06:10:11.369Z,7.15
2019-01-08T06:12:41.085Z,7.17
2019-01-08T06:15:10.947Z,7.15
2019-01-08T06:17:41.182Z,7.15
2019-01-08T06:20:10.941Z,7.19
2019-01-08T06:22:41.014Z,7.20
2019-01-08T06:25:10.830Z,7.22
2019-01-08T06:27:40.564Z,7.19
2019-01-08T06:30:10.324Z,7.13
2019-01-08T06:32:40.108Z,7.14
2019-01-08T06:35:09.891Z,7.21
2019-01-08T06:37:39.594Z,7.18
2019-01-08T06:40:09.325Z,7.22
2019-01-08T06:42:39.079Z,7.20
2019-01-08T06:45:08.847Z,7.19
2019-01-08T06:47:38.502Z,7.20
2019-01-08T06:50:09.047Z,7.27
2019-01-08T06:52:38.708Z,7.28
2019-01-08T06:55:09.007Z,7.28
2019-01-08T06:57:38.683Z,7.16
2019-01-08T07:00:09.857Z,7.20
2019-01-08T07:02:39.661Z,7.19
2019-01-08T07:05:09.443Z,7.25
2019-01-08T07:07:39.231Z,7.26
2019-01-08T07:10:08.964Z,7.32
2019-01-08T07:12:38.789Z,7.27
2019-01-08T07:15:08.589Z,7.29
2019-01-08T07:17:38.277Z,7.32
2019-01-08T07:20:08.686Z,7.34
2019-01-08T07:22:38.476Z,7.31
2019-01-08T07:25:08.334Z,7.24
2019-01-08T07:27:38.094Z,7.18
2019-01-08T07:30:08.066Z,7.21
2019-01-08T07:32:37.838Z,7.25
2019-01-08T07:35:07.662Z,7.17
2019-01-08T07:37:37.625Z,7.16
2019-01-08T07:40:07.789Z,7.13
2019-01-08T07:42:37.545Z,7.10
2019-01-08T07:45:07.348Z,7.19
2019-01-08T07:47:37.390Z,7.15
2019-01-08T07:50:08.627Z,7.14
2019-01-08T07:52:38.467Z,7.23
2019-01-08T07:55:08.466Z,7.25
2019-01-08T07:57:38.511Z,7.05
2019-01-08T08:00:08.618Z,7.16
2019-01-08T08:02:38.631Z,7.14
2019-01-08T08:05:08.402Z,7.11
2019-01-08T08:07:38.246Z,7.16
2019-01-08T08:10:08.599Z,7.12
2019-01-08T08:12:38.496Z,7.23
2019-01-08T08:15:08.600Z,7.14
2019-01-08T08:17:38.360Z,7.21
2019-01-08T08:20:08.589Z,7.15
2019-01-08T08:22:38.365Z,7.18
2019-01-08T08:25:08.504Z,7.18
2019-01-08T08:27:39.083Z,7.19
2019-01-08T08:30:09.496Z,7.26
2019-01-08T08:32:39.290Z,7.16
2019-01-08T08:35:09.085Z,7.15
2019-01-08T08:37:38.765Z,7.21
2019-01-08T08:40:08.871Z,7.26
2019-01-08T08:42:38.565Z,7.21
2019-01-08T08:45:08.660Z,7.28
2019-01-08T08:47:38.460Z,7.28
2019-01-08T08:50:08.354Z,7.21
2019-01-08T08:52:38.064Z,7.36
2019-01-08T08:55:07.992Z,7.38
2019-01-08T08:57:38.082Z,7.39
2019-01-08T09:00:09.057Z,7.38
2019-01-08T09:02:38.845Z,7.41
2019-01-08T09:05:08.603Z,7.55
2019-01-08T09:07:38.289Z,7.51
2019-01-08T09:10:08.153Z,7.43
2019-01-08T09:12:37.894Z,7.52
2019-01-08T09:15:07.764Z,7.47
2019-01-08T09:17:37.480Z,7.53
2019-01-08T09:20:08.119Z,7.64
2019-01-08T09:22:37.904Z,7.59
2019-01-08T09:25:08.230Z,7.58
2019-01-08T09:27:37.920Z,7.63
2019-01-08T09:30:08.555Z,7.67
2019-01-08T09:32:38.494Z,7.64
2019-01-08T09:35:08.403Z,7.59
2019-01-08T09:37:38.195Z,7.58
2019-01-08T09:40:07.887Z,7.63
2019-01-08T09:42:37.592Z,7.56
2019-01-08T09:45:08.316Z,7.61
2019-01-08T09:47:38.071Z,7.60
2019-01-08T09:50:08.551Z,7.61
2019-01-08T09:52:38.392Z,7.67
2019-01-08T09:55:08.234Z,7.71
2019-01-08T09:57:38.004Z,7.80
2019-01-08T10:00:08.646Z,7.73
2019-01-08T10:02:38.302Z,7.70
2019-01-08T10:05:08.145Z,7.72
2019-01-08T10:07:37.827Z,7.62
2019-01-08T10:10:08.336Z,7.73
2019-01-08T10:12:38.000Z,7.62
2019-01-08T10:15:07.858Z,7.66
2019-01-08T10:17:37.538Z,7.70
2019-01-08T10:20:07.791Z,7.68
2019-01-08T10:22:37.504Z,7.76
2019-01-08T10:25:08.573Z,7.61
2019-01-08T10:27:38.415Z,7.70
2019-01-08T10:30:09.979Z,7.69
2019-01-08T10:32:39.901Z,7.61
2019-01-08T10:35:09.777Z,7.67
2019-01-08T10:37:39.530Z,7.72
2019-01-08T10:40:09.387Z,7.71
2019-01-08T10:42:39.266Z,7.59
2019-01-08T10:45:09.043Z,7.68
2019-01-08T10:47:38.895Z,7.61
2019-01-08T10:50:08.809Z,7.67
2019-01-08T10:52:38.710Z,7.70
2019-01-08T10:55:08.538Z,7.70
2019-01-08T10:57:39.352Z,7.63
2019-01-08T11:00:11.983Z,7.72
2019-01-08T11:02:41.669Z,7.68
2019-01-08T11:05:11.354Z,7.76
2019-01-08T11:07:41.615Z,7.70
2019-01-08T11:10:11.374Z,7.68
2019-01-08T11:12:41.043Z,7.74
2019-01-08T11:15:10.812Z,7.83
2019-01-08T11:17:40.576Z,7.91
2019-01-08T11:20:10.599Z,7.84
2019-01-08T11:22:40.351Z,7.77
2019-01-08T11:25:10.171Z,7.88
2019-01-08T11:27:39.901Z,7.88
2019-01-08T11:30:09.695Z,7.93
2019-01-08T11:32:39.483Z,7.87
2019-01-08T11:35:09.251Z,7.79
2019-01-08T11:37:38.974Z,7.94
2019-01-08T11:40:08.768Z,7.90
2019-01-08T11:42:38.444Z,7.82
2019-01-08T11:45:09.362Z,7.87
2019-01-08T11:47:39.148Z,7.89
2019-01-08T11:50:09.009Z,7.83
2019-01-08T11:52:38.708Z,7.70
2019-01-08T11:55:08.506Z,7.81
2019-01-08T11:57:38.352Z,7.77
2019-01-08T12:00:11.146Z,7.83
2019-01-08T12:02:47.810Z,7.67
2019-01-08T12:05:12.422Z,7.62
2019-01-08T12:07:45.507Z,7.71
2019-01-08T12:10:17.060Z,7.74
2019-01-08T12:12:46.861Z,7.80
2019-01-08T12:15:16.633Z,7.68
2019-01-08T12:17:46.298Z,7.82
2019-01-08T12:20:16.013Z,7.73
2019-01-08T12:22:45.780Z,7.84
2019-01-08T12:25:18.911Z,7.80
2019-01-08T12:27:48.603Z,7.78
2019-01-08T12:30:18.311Z,7.78
2019-01-08T12:32:48.116Z,7.84
2019-01-08T12:35:17.784Z,7.64
2019-01-08T12:37:47.730Z,7.77
2019-01-08T12:40:17.549Z,7.89
2019-01-08T12:42:47.308Z,7.78
2019-01-08T12:45:17.061Z,7.73
2019-01-08T12:47:46.803Z,7.75
2019-01-08T12:50:16.585Z,7.63
2019-01-08T12:52:46.242Z,7.72
2019-01-08T12:55:16.008Z,7.78
2019-01-08T12:57:45.842Z,7.65
2019-01-08T13:00:15.679Z,7.61
2019-01-08T13:02:45.482Z,7.56
2019-01-08T13:05:15.273Z,7.71
2019-01-08T13:07:45.011Z,7.63
2019-01-08T13:10:14.734Z,7.73
2019-01-08T13:12:44.522Z,7.76
2019-01-08T13:15:14.919Z,7.74
2019-01-08T13:17:44.614Z,7.79
2019-01-08T13:20:14.282Z,7.67
2019-01-08T13:22:43.975Z,7.71
2019-01-08T13:25:13.817Z,7.65
2019-01-08T13:27:43.521Z,7.67
2019-01-08T13:30:13.253Z,7.63
2019-01-08T13:32:42.954Z,7.64
2019-01-08T13:35:12.734Z,7.73
2019-01-08T13:37:42.652Z,7.78
2019-01-08T13:40:12.411Z,7.90
2019-01-08T13:42:42.220Z,7.74
2019-01-08T13:45:11.960Z,7.74
2019-01-08T13:47:41.652Z,7.74
2019-01-08T13:50:11.446Z,7.71
2019-01-08T13:52:41.205Z,7.66
2019-01-08T13:55:10.940Z,7.67
2019-01-08T13:57:40.707Z,7.72
2019-01-08T14:00:10.710Z,7.75
2019-01-08T14:02:40.410Z,7.68
2019-01-08T14:05:10.177Z,7.60
2019-01-08T14:07:39.970Z,7.54
2019-01-08T14:10:09.741Z,7.62
2019-01-08T14:12:39.433Z,7.58
2019-01-08T14:15:09.232Z,7.63
2019-01-08T14:17:38.981Z,7.56
2019-01-08T14:20:09.201Z,7.49
2019-01-08T14:22:38.887Z,7.49
2019-01-08T14:25:08.776Z,7.42
2019-01-08T14:27:38.459Z,7.38
2019-01-08T14:30:09.442Z,7.32
2019-01-08T14:32:40.815Z,7.38
2019-01-08T14:35:10.670Z,7.23
2019-01-08T14:37:40.333Z,7.37
2019-01-08T14:40:10.181Z,7.31
2019-01-08T14:42:40.005Z,7.38
2019-01-08T14:45:09.842Z,7.38
2019-01-08T14:47:39.552Z,7.37
2019-01-08T14:50:09.306Z,7.16
2019-01-08T14:52:39.065Z,7.17
2019-01-08T14:55:08.943Z,6.96
2019-01-08T14:57:38.788Z,7.07
2019-01-08T15:00:09.966Z,7.21
2019-01-08T15:02:39.754Z,7.42
2019-01-08T15:05:09.560Z,7.19
2019-01-08T15:07:39.211Z,7.26
2019-01-08T15:10:09.060Z,7.25
2019-01-08T15:12:38.771Z,7.16
2019-01-08T15:15:08.617Z,7.18
2019-01-08T15:17:38.357Z,7.14
2019-01-08T15:20:08.330Z,7.14
2019-01-08T15:22:38.175Z,7.10
2019-01-08T15:25:08.069Z,6.99
2019-01-08T15:27:37.882Z,7.00
2019-01-08T15:30:09.465Z,6.84
2019-01-08T15:32:39.154Z,6.97
2019-01-08T15:35:08.925Z,6.94
2019-01-08T15:37:38.617Z,6.93
2019-01-08T15:40:08.381Z,7.04
2019-01-08T15:42:38.133Z,7.10
2019-01-08T15:45:07.954Z,6.79
2019-01-08T15:47:37.715Z,6.95
2019-01-08T15:50:07.570Z,6.82
2019-01-08T15:52:37.315Z,6.64
2019-01-08T15:55:07.404Z,6.74
2019-01-08T15:57:37.270Z,6.70
2019-01-08T16:00:08.309Z,6.72
2019-01-08T16:02:38.135Z,6.68
2019-01-08T16:05:08.288Z,6.91
2019-01-08T16:07:38.056Z,6.70
2019-01-08T16:10:08.382Z,6.75
2019-01-08T16:12:38.117Z,6.76
2019-01-08T16:15:08.217Z,6.91
2019-01-08T16:17:37.959Z,6.72
2019-01-08T16:20:07.888Z,6.76
2019-01-08T16:22:37.603Z,6.74
2019-01-08T16:25:07.411Z,6.60
2019-01-08T16:27:37.146Z,6.59
2019-01-08T16:30:07.247Z,6.62
2019-01-08T16:32:36.970Z,6.43
2019-01-08T16:35:06.794Z,6.26
2019-01-08T16:37:36.581Z,6.41
2019-01-08T16:40:07.521Z,6.40
2019-01-08T16:42:37.316Z,6.34
2019-01-08T16:45:07.168Z,6.41
2019-01-08T16:47:36.934Z,6.35
2019-01-08T16:50:07.142Z,6.33
2019-01-08T16:52:36.836Z,6.39
2019-01-08T16:55:06.841Z,6.45
2019-01-08T16:57:36.890Z,6.43
2019-01-08T17:00:08.527Z,6.54
2019-01-08T17:02:38.232Z,6.48
2019-01-08T17:05:07.986Z,6.39
2019-01-08T17:07:37.665Z,6.29
2019-01-08T17:10:07.667Z,6.31
2019-01-08T17:12:37.444Z,6.44
2019-01-08T17:15:07.315Z,6.32
2019-01-08T17:17:37.474Z,6.28
2019-01-08T17:20:07.907Z,6.26
2019-01-08T17:22:37.613Z,6.19
2019-01-08T17:25:07.740Z,6.11
2019-01-08T17:27:37.543Z,6.19
2019-01-08T17:30:09.548Z,6.07
2019-01-08T17:32:48.216Z,6.30
2019-01-08T17:35:17.953Z,6.30
2019-01-08T17:37:47.666Z,6.06
2019-01-08T17:40:17.336Z,6.13
2019-01-08T17:42:47.035Z,6.22
2019-01-08T17:45:16.835Z,6.15
2019-01-08T17:47:46.614Z,6.34
2019-01-08T17:50:16.313Z,6.04
2019-01-08T17:52:45.985Z,6.14
2019-01-08T17:55:16.755Z,6.06
2019-01-08T17:57:46.515Z,6.14
2019-01-08T18:00:16.319Z,6.21
2019-01-08T18:02:50.907Z,6.03
2019-01-08T18:05:20.769Z,5.98
2019-01-08T18:07:50.562Z,5.99
2019-01-08T18:10:20.424Z,6.03
2019-01-08T18:12:50.211Z,6.01
2019-01-08T18:15:19.888Z,6.20
2019-01-08T18:17:49.700Z,6.02
2019-01-08T18:20:19.534Z,6.05
2019-01-08T18:22:49.310Z,6.10
2019-01-08T18:25:19.056Z,5.87
2019-01-08T18:27:48.942Z,5.88
2019-01-08T18:30:18.726Z,5.76
2019-01-08T18:32:48.534Z,5.84
2019-01-08T18:35:18.300Z,6.00
2019-01-08T18:37:48.168Z,5.87
2019-01-08T18:40:18.258Z,5.79
2019-01-08T18:42:48.001Z,5.72
2019-01-08T18:45:17.717Z,5.57
2019-01-08T18:47:47.611Z,5.71
2019-01-08T18:50:17.544Z,5.48
2019-01-08T18:52:47.323Z,5.43
2019-01-08T18:55:17.061Z,5.53
2019-01-08T18:57:47.045Z,5.62
2019-01-08T19:00:17.042Z,5.60
2019-01-08T19:02:46.854Z,5.54
2019-01-08T19:05:16.633Z,5.59
2019-01-08T19:07:46.303Z,5.60
2019-01-08T19:10:16.295Z,5.52
2019-01-08T19:12:46.529Z,5.45
2019-01-08T19:15:16.499Z,5.60
2019-01-08T19:17:46.328Z,5.61
2019-01-08T19:20:16.111Z,5.54
2019-01-08T19:22:47.551Z,5.66
2019-01-08T19:25:17.324Z,5.42
2019-01-08T19:27:47.071Z,5.50
2019-01-08T19:30:16.878Z,5.58
2019-01-08T19:32:46.650Z,5.47
2019-01-08T19:35:16.506Z,5.57
2019-01-08T19:37:46.236Z,5.54
2019-01-08T19:40:16.183Z,5.40
2019-01-08T19:42:46.042Z,5.47
2019-01-08T19:45:15.780Z,5.44
2019-01-08T19:47:45.554Z,5.38
2019-01-08T19:50:15.490Z,5.31
2019-01-08T19:52:45.372Z,5.24
2019-01-08T19:55:15.163Z,5.30
2019-01-08T19:57:44.910Z,5.53
2019-01-08T20:00:14.824Z,5.41
2019-01-08T20:02:44.595Z,5.19
2019-01-08T20:05:14.365Z,5.22
2019-01-08T20:07:44.212Z,5.04
2019-01-08T20:10:14.110Z,5.14
2019-01-08T20:12:44.113Z,5.28
2019-01-08T20:15:13.979Z,5.25
2019-01-08T20:17:43.783Z,5.29
2019-01-08T20:20:13.553Z,5.03
2019-01-08T20:22:43.324Z,4.86
2019-01-08T20:25:13.025Z,4.92
2019-01-08T20:27:47.419Z,4.74
2019-01-08T20:30:17.222Z,4.96
2019-01-08T20:32:47.038Z,5.13
2019-01-08T20:35:16.990Z,4.89
2019-01-08T20:37:46.766Z,5.11
2019-01-08T20:40:16.546Z,4.83
2019-01-08T20:42:46.300Z,4.80
2019-01-08T20:45:16.105Z,4.72
2019-01-08T20:47:46.228Z,4.81
2019-01-08T20:50:16.022Z,4.77
2019-01-08T20:52:45.810Z,4.82
2019-01-08T20:55:15.599Z,4.66
2019-01-08T20:57:45.472Z,4.51
2019-01-08T21:00:15.270Z,4.58
2019-01-08T21:02:45.074Z,4.50
2019-01-08T21:05:14.749Z,4.60
2019-01-08T21:07:44.692Z,4.61
2019-01-08T21:10:16.319Z,4.43
2019-01-08T21:12:46.076Z,4.47
2019-01-08T21:15:15.845Z,4.48
2019-01-08T21:17:45.584Z,4.53
2019-01-08T21:20:15.544Z,4.55
2019-01-08T21:22:45.289Z,4.42
2019-01-08T21:25:14.994Z,4.37
2019-01-08T21:27:44.718Z,4.35
2019-01-08T21:30:14.445Z,4.60
2019-01-08T21:32:44.210Z,4.56
2019-01-08T21:35:13.926Z,4.45
2019-01-08T21:37:45.720Z,4.31
2019-01-08T21:40:15.048Z,4.41
2019-01-08T21:42:44.769Z,4.42
2019-01-08T21:45:14.607Z,4.22
2019-01-08T21:47:44.379Z,4.31
2019-01-08T21:50:14.307Z,4.23
2019-01-08T21:52:43.973Z,4.15
2019-01-08T21:55:13.673Z,4.38
2019-01-08T21:57:43.383Z,4.19
2019-01-08T22:00:13.269Z,4.30
2019-01-08T22:02:43.021Z,4.34
2019-01-08T22:05:13.119Z,4.35
2019-01-08T22:07:42.866Z,4.46
2019-01-08T22:10:12.695Z,4.28
2019-01-08T22:12:42.560Z,4.33
2019-01-08T22:15:12.304Z,4.46
2019-01-08T22:17:42.022Z,4.33
2019-01-08T22:20:11.814Z,4.40
2019-01-08T22:22:41.607Z,4.43
2019-01-08T22:25:11.376Z,4.43
2019-01-08T22:27:41.115Z,4.34
2019-01-08T22:30:10.886Z,4.27
2019-01-08T22:32:40.717Z,4.35
2019-01-08T22:35:10.536Z,4.25
2019-01-08T22:37:44.126Z,4.24
2019-01-08T22:40:13.854Z,4.25
2019-01-08T22:42:43.719Z,4.15
2019-01-08T22:45:13.594Z,4.27
2019-01-08T22:47:43.478Z,4.24
2019-01-08T22:50:13.377Z,4.38
2019-01-08T22:52:43.647Z,4.45
2019-01-08T22:55:13.500Z,4.42
2019-01-08T22:57:43.378Z,4.36
2019-01-08T23:00:33.352Z,4.41
2019-01-08T23:03:03.182Z,4.18
2019-01-08T23:05:32.891Z,4.31
2019-01-08T23:08:02.776Z,4.23
2019-01-08T23:10:33.155Z,4.38
2019-01-08T23:13:02.953Z,4.16
2019-01-08T23:15:32.802Z,4.20
2019-01-08T23:18:02.633Z,4.14
2019-01-08T23:20:32.404Z,4.19
2019-01-08T23:23:05.563Z,4.25
2019-01-08T23:26:04.525Z,4.24
2019-01-08T23:28:36.465Z,4.27
2019-01-08T23:31:19.198Z,4.19
2019-01-08T23:34:00.954Z,4.06
2019-01-08T23:36:30.727Z,4.20
2019-01-08T23:39:00.463Z,4.23
2019-01-08T23:41:30.221Z,4.17
2019-01-08T23:44:00.008Z,4.24
2019-01-08T23:46:29.809Z,4.16
2019-01-08T23:48:59.542Z,4.22
2019-01-08T23:51:29.382Z,4.27
2019-01-08T23:53:59.219Z,4.33
2019-01-08T23:56:29.870Z,4.34
2019-01-08T23:58:59.629Z,4.37
